sensor_id;sensor_type;location;lat;lon;timestamp;pressure;altitude;pressure_sealevel;temperature;humidity
39793;BME280;26080;42.264;24.536;2023-04-20T00:02:18;98863.97;;;9.04;100.00
39793;BME280;26080;42.264;24.536;2023-04-20T00:04:45;98895.72;;;9.14;100.00
39793;BME280;26080;42.264;24.536;2023-04-20T00:07:11;98878.44;;;9.11;100.00
39793;BME280;26080;42.264;24.536;2023-04-20T00:09:37;98888.72;;;9.14;100.00
39793;BME280;26080;42.264;24.536;2023-04-20T00:12:02;98883.34;;;9.17;100.00
39793;BME280;26080;42.264;24.536;2023-04-20T00:14:28;98881.38;;;9.23;100.00
39793;BME280;26080;42.264;24.536;2023-04-20T00:16:53;98872.78;;;9.20;100.00
39793;BME280;26080;42.264;24.536;2023-04-20T00:19:19;98876.44;;;9.16;100.00
39793;BME280;26080;42.264;24.536;2023-04-20T00:21:47;98855.34;;;9.02;100.00
39793;BME280;26080;42.264;24.536;2023-04-20T00:24:12;98865.06;;;9.17;100.00
39793;BME280;26080;42.264;24.536;2023-04-20T00:26:37;98855.00;;;9.10;100.00
39793;BME280;26080;42.264;24.536;2023-04-20T00:29:03;98863.88;;;9.25;100.00
39793;BME280;26080;42.264;24.536;2023-04-20T00:31:30;98861.72;;;9.33;100.00
39793;BME280;26080;42.264;24.536;2023-04-20T00:33:55;98859.88;;;9.35;100.00
39793;BME280;26080;42.264;24.536;2023-04-20T00:36:21;98858.47;;;9.45;100.00
39793;BME280;26080;42.264;24.536;2023-04-20T00:38:46;98864.03;;;9.39;100.00
39793;BME280;26080;42.264;24.536;2023-04-20T00:41:12;98859.88;;;9.35;100.00
39793;BME280;26080;42.264;24.536;2023-04-20T00:43:48;98865.13;;;9.35;100.00
39793;BME280;26080;42.264;24.536;2023-04-20T00:46:13;98865.97;;;9.35;100.00
39793;BME280;26080;42.264;24.536;2023-04-20T00:48:39;98858.13;;;9.35;100.00
39793;BME280;26080;42.264;24.536;2023-04-20T00:51:04;98855.78;;;9.29;100.00
39793;BME280;26080;42.264;24.536;2023-04-20T00:53:30;98861.84;;;9.30;100.00
39793;BME280;26080;42.264;24.536;2023-04-20T00:55:55;98859.06;;;9.15;100.00
39793;BME280;26080;42.264;24.536;2023-04-20T00:58:21;98860.38;;;9.07;100.00
39793;BME280;26080;42.264;24.536;2023-04-20T01:00:46;98858.03;;;9.01;100.00
39793;BME280;26080;42.264;24.536;2023-04-20T01:03:12;98834.84;;;8.76;100.00
39793;BME280;26080;42.264;24.536;2023-04-20T01:05:39;98863.09;;;8.86;100.00
39793;BME280;26080;42.264;24.536;2023-04-20T01:08:04;98865.16;;;8.80;100.00
39793;BME280;26080;42.264;24.536;2023-04-20T01:10:31;98859.16;;;8.78;100.00
39793;BME280;26080;42.264;24.536;2023-04-20T01:12:57;98857.38;;;8.78;100.00
39793;BME280;26080;42.264;24.536;2023-04-20T01:15:22;98858.63;;;8.88;100.00
39793;BME280;26080;42.264;24.536;2023-04-20T01:17:48;98859.53;;;8.87;100.00
39793;BME280;26080;42.264;24.536;2023-04-20T01:20:13;98863.78;;;8.90;100.00
39793;BME280;26080;42.264;24.536;2023-04-20T01:22:57;98858.78;;;8.85;100.00
39793;BME280;26080;42.264;24.536;2023-04-20T01:25:22;98857.88;;;8.68;100.00
39793;BME280;26080;42.264;24.536;2023-04-20T01:27:48;98851.81;;;8.48;100.00
39793;BME280;26080;42.264;24.536;2023-04-20T01:30:13;98867.59;;;8.45;100.00
39793;BME280;26080;42.264;24.536;2023-04-20T01:32:39;98850.38;;;8.22;100.00
39793;BME280;26080;42.264;24.536;2023-04-20T01:35:05;98878.84;;;8.27;100.00
39793;BME280;26080;42.264;24.536;2023-04-20T01:37:31;98856.75;;;8.15;100.00
39793;BME280;26080;42.264;24.536;2023-04-20T01:39:56;98870.94;;;8.10;100.00
39793;BME280;26080;42.264;24.536;2023-04-20T01:42:22;98847.47;;;7.89;100.00
39793;BME280;26080;42.264;24.536;2023-04-20T01:44:48;98863.56;;;7.99;100.00
39793;BME280;26080;42.264;24.536;2023-04-20T01:47:13;98862.88;;;7.95;100.00
39793;BME280;26080;42.264;24.536;2023-04-20T01:49:39;98862.97;;;7.92;100.00
39793;BME280;26080;42.264;24.536;2023-04-20T01:52:05;98862.19;;;7.90;100.00
39793;BME280;26080;42.264;24.536;2023-04-20T01:54:30;98866.72;;;7.87;100.00
39793;BME280;26080;42.264;24.536;2023-04-20T01:56:56;98856.97;;;7.90;100.00
39793;BME280;26080;42.264;24.536;2023-04-20T01:59:22;98864.03;;;7.88;100.00
39793;BME280;26080;42.264;24.536;2023-04-20T02:01:47;98820.75;;;7.64;100.00
39793;BME280;26080;42.264;24.536;2023-04-20T02:04:13;98860.66;;;7.86;100.00
39793;BME280;26080;42.264;24.536;2023-04-20T02:06:38;98851.84;;;7.89;100.00
39793;BME280;26080;42.264;24.536;2023-04-20T02:09:03;98849.94;;;7.92;100.00
39793;BME280;26080;42.264;24.536;2023-04-20T02:11:29;98852.38;;;7.97;100.00
39793;BME280;26080;42.264;24.536;2023-04-20T02:13:54;98848.78;;;7.99;100.00
39793;BME280;26080;42.264;24.536;2023-04-20T02:16:21;98845.25;;;8.00;100.00
39793;BME280;26080;42.264;24.536;2023-04-20T02:18:47;98851.38;;;7.99;100.00
39793;BME280;26080;42.264;24.536;2023-04-20T02:21:13;98845.19;;;8.02;100.00
39793;BME280;26080;42.264;24.536;2023-04-20T02:23:38;98843.69;;;7.96;100.00
39793;BME280;26080;42.264;24.536;2023-04-20T02:26:04;98854.00;;;7.99;100.00
39793;BME280;26080;42.264;24.536;2023-04-20T02:28:29;98850.25;;;8.05;100.00
39793;BME280;26080;42.264;24.536;2023-04-20T02:30:55;98851.47;;;8.17;100.00
39793;BME280;26080;42.264;24.536;2023-04-20T02:33:20;98861.06;;;8.16;100.00
39793;BME280;26080;42.264;24.536;2023-04-20T02:35:46;98859.28;;;8.17;100.00
39793;BME280;26080;42.264;24.536;2023-04-20T02:38:11;98849.84;;;8.14;100.00
39793;BME280;26080;42.264;24.536;2023-04-20T02:40:37;98860.59;;;8.27;100.00
39793;BME280;26080;42.264;24.536;2023-04-20T02:43:02;98863.13;;;8.28;100.00
39793;BME280;26080;42.264;24.536;2023-04-20T02:45:27;98867.13;;;8.17;100.00
39793;BME280;26080;42.264;24.536;2023-04-20T02:47:55;98862.50;;;8.03;100.00
39793;BME280;26080;42.264;24.536;2023-04-20T02:50:20;98850.31;;;8.03;100.00
39793;BME280;26080;42.264;24.536;2023-04-20T02:52:46;98857.06;;;8.09;100.00
39793;BME280;26080;42.264;24.536;2023-04-20T02:55:11;98858.59;;;8.13;100.00
39793;BME280;26080;42.264;24.536;2023-04-20T02:57:37;98850.47;;;8.19;100.00
39793;BME280;26080;42.264;24.536;2023-04-20T03:00:02;98862.75;;;8.38;100.00
39793;BME280;26080;42.264;24.536;2023-04-20T03:02:28;98856.69;;;8.37;100.00
39793;BME280;26080;42.264;24.536;2023-04-20T03:04:53;98854.09;;;8.37;100.00
39793;BME280;26080;42.264;24.536;2023-04-20T03:07:19;98847.66;;;8.44;100.00
39793;BME280;26080;42.264;24.536;2023-04-20T03:09:44;98848.34;;;8.48;100.00
39793;BME280;26080;42.264;24.536;2023-04-20T03:12:10;98820.38;;;8.31;100.00
39793;BME280;26080;42.264;24.536;2023-04-20T03:14:35;98852.53;;;8.52;100.00
39793;BME280;26080;42.264;24.536;2023-04-20T03:17:01;98850.78;;;8.52;100.00
39793;BME280;26080;42.264;24.536;2023-04-20T03:19:26;98844.34;;;8.59;100.00
39793;BME280;26080;42.264;24.536;2023-04-20T03:21:52;98848.56;;;8.62;100.00
39793;BME280;26080;42.264;24.536;2023-04-20T03:24:17;98826.91;;;8.41;100.00
39793;BME280;26080;42.264;24.536;2023-04-20T03:26:43;98827.16;;;8.37;100.00
39793;BME280;26080;42.264;24.536;2023-04-20T03:29:09;98853.09;;;8.58;100.00
39793;BME280;26080;42.264;24.536;2023-04-20T03:31:34;98857.75;;;8.71;100.00
39793;BME280;26080;42.264;24.536;2023-04-20T03:34:00;98860.53;;;8.85;100.00
39793;BME280;26080;42.264;24.536;2023-04-20T03:36:25;98868.09;;;8.91;100.00
39793;BME280;26080;42.264;24.536;2023-04-20T03:38:52;98868.81;;;8.95;100.00
39793;BME280;26080;42.264;24.536;2023-04-20T03:41:18;98875.22;;;9.06;100.00
39793;BME280;26080;42.264;24.536;2023-04-20T03:43:46;98857.19;;;9.00;100.00
39793;BME280;26080;42.264;24.536;2023-04-20T03:46:11;98879.84;;;9.18;100.00
39793;BME280;26080;42.264;24.536;2023-04-20T03:48:37;98882.38;;;9.20;100.00
39793;BME280;26080;42.264;24.536;2023-04-20T03:51:02;98880.47;;;9.24;100.00
39793;BME280;26080;42.264;24.536;2023-04-20T03:53:28;98883.59;;;9.30;100.00
39793;BME280;26080;42.264;24.536;2023-04-20T03:55:54;98881.41;;;9.40;100.00
39793;BME280;26080;42.264;24.536;2023-04-20T03:58:20;98854.03;;;9.30;100.00
39793;BME280;26080;42.264;24.536;2023-04-20T04:00:48;98885.88;;;9.55;100.00
39793;BME280;26080;42.264;24.536;2023-04-20T04:03:13;98897.31;;;9.70;100.00
39793;BME280;26080;42.264;24.536;2023-04-20T04:05:39;98889.78;;;9.81;100.00
39793;BME280;26080;42.264;24.536;2023-04-20T04:08:05;98841.44;;;9.55;100.00
39793;BME280;26080;42.264;24.536;2023-04-20T04:10:31;98888.03;;;9.82;100.00
39793;BME280;26080;42.264;24.536;2023-04-20T04:12:56;98901.78;;;9.85;100.00
39793;BME280;26080;42.264;24.536;2023-04-20T04:15:21;98875.13;;;9.78;100.00
39793;BME280;26080;42.264;24.536;2023-04-20T04:17:47;98892.72;;;9.92;100.00
39793;BME280;26080;42.264;24.536;2023-04-20T04:20:13;98896.84;;;9.96;100.00
39793;BME280;26080;42.264;24.536;2023-04-20T04:22:39;98890.78;;;9.96;100.00
39793;BME280;26080;42.264;24.536;2023-04-20T04:25:05;98881.66;;;9.87;100.00
39793;BME280;26080;42.264;24.536;2023-04-20T04:27:31;98899.63;;;10.10;100.00
39793;BME280;26080;42.264;24.536;2023-04-20T04:29:59;98891.06;;;10.24;100.00
39793;BME280;26080;42.264;24.536;2023-04-20T04:32:25;98892.75;;;10.25;100.00
39793;BME280;26080;42.264;24.536;2023-04-20T04:34:51;98889.34;;;10.41;100.00
39793;BME280;26080;42.264;24.536;2023-04-20T04:37:17;98900.00;;;10.53;100.00
39793;BME280;26080;42.264;24.536;2023-04-20T04:39:43;98904.94;;;10.75;100.00
39793;BME280;26080;42.264;24.536;2023-04-20T04:42:08;98898.09;;;10.88;100.00
39793;BME280;26080;42.264;24.536;2023-04-20T04:44:34;98888.06;;;10.96;100.00
39793;BME280;26080;42.264;24.536;2023-04-20T04:47:01;98890.16;;;11.06;100.00
39793;BME280;26080;42.264;24.536;2023-04-20T04:49:27;98904.59;;;11.28;100.00
39793;BME280;26080;42.264;24.536;2023-04-20T04:51:53;98899.25;;;11.46;100.00
39793;BME280;26080;42.264;24.536;2023-04-20T04:54:19;98896.94;;;11.55;100.00
39793;BME280;26080;42.264;24.536;2023-04-20T04:56:44;98905.50;;;11.73;100.00
39793;BME280;26080;42.264;24.536;2023-04-20T04:59:10;98902.41;;;11.82;100.00
39793;BME280;26080;42.264;24.536;2023-04-20T05:01:35;98918.81;;;11.70;100.00
39793;BME280;26080;42.264;24.536;2023-04-20T05:04:01;98914.13;;;11.91;100.00
39793;BME280;26080;42.264;24.536;2023-04-20T05:06:26;98917.53;;;11.93;100.00
39793;BME280;26080;42.264;24.536;2023-04-20T05:08:52;98923.78;;;11.91;100.00
39793;BME280;26080;42.264;24.536;2023-04-20T05:11:17;98916.09;;;11.88;100.00
39793;BME280;26080;42.264;24.536;2023-04-20T05:13:43;98914.41;;;11.71;100.00
39793;BME280;26080;42.264;24.536;2023-04-20T05:16:09;98899.72;;;11.68;100.00
39793;BME280;26080;42.264;24.536;2023-04-20T05:18:34;98918.25;;;11.81;100.00
39793;BME280;26080;42.264;24.536;2023-04-20T05:21:00;98919.91;;;11.82;100.00
39793;BME280;26080;42.264;24.536;2023-04-20T05:23:26;98897.81;;;11.86;100.00
39793;BME280;26080;42.264;24.536;2023-04-20T05:25:51;98912.75;;;12.00;100.00
39793;BME280;26080;42.264;24.536;2023-04-20T05:28:16;98917.44;;;11.95;100.00
39793;BME280;26080;42.264;24.536;2023-04-20T05:30:43;98900.56;;;11.99;100.00
39793;BME280;26080;42.264;24.536;2023-04-20T05:33:08;98906.22;;;12.07;100.00
39793;BME280;26080;42.264;24.536;2023-04-20T05:35:33;98908.00;;;12.06;100.00
39793;BME280;26080;42.264;24.536;2023-04-20T05:37:59;98911.72;;;12.16;100.00
39793;BME280;26080;42.264;24.536;2023-04-20T05:40:29;98910.66;;;12.35;100.00
39793;BME280;26080;42.264;24.536;2023-04-20T05:42:55;98907.63;;;12.41;100.00
39793;BME280;26080;42.264;24.536;2023-04-20T05:45:20;98914.75;;;12.39;100.00
39793;BME280;26080;42.264;24.536;2023-04-20T05:47:55;98913.81;;;12.54;100.00
39793;BME280;26080;42.264;24.536;2023-04-20T05:50:22;98918.31;;;12.66;100.00
39793;BME280;26080;42.264;24.536;2023-04-20T05:52:48;98919.81;;;12.70;100.00
39793;BME280;26080;42.264;24.536;2023-04-20T05:55:13;98919.81;;;12.70;100.00
39793;BME280;26080;42.264;24.536;2023-04-20T05:57:39;98922.72;;;12.66;100.00
39793;BME280;26080;42.264;24.536;2023-04-20T06:00:16;98918.03;;;12.57;100.00
39793;BME280;26080;42.264;24.536;2023-04-20T06:02:42;98922.25;;;12.59;100.00
39793;BME280;26080;42.264;24.536;2023-04-20T06:05:09;98899.75;;;12.55;100.00
39793;BME280;26080;42.264;24.536;2023-04-20T06:07:35;98908.84;;;12.64;100.00
39793;BME280;26080;42.264;24.536;2023-04-20T06:10:01;98913.53;;;12.73;100.00
39793;BME280;26080;42.264;24.536;2023-04-20T06:12:27;98911.66;;;12.89;100.00
39793;BME280;26080;42.264;24.536;2023-04-20T06:14:54;98878.53;;;12.72;100.00
39793;BME280;26080;42.264;24.536;2023-04-20T06:17:20;98904.97;;;12.84;100.00
39793;BME280;26080;42.264;24.536;2023-04-20T06:19:45;98915.69;;;12.81;100.00
39793;BME280;26080;42.264;24.536;2023-04-20T06:22:12;98918.50;;;12.92;100.00
39793;BME280;26080;42.264;24.536;2023-04-20T06:24:37;98928.13;;;13.05;100.00
39793;BME280;26080;42.264;24.536;2023-04-20T06:27:03;98925.31;;;13.09;100.00
39793;BME280;26080;42.264;24.536;2023-04-20T06:29:29;98925.41;;;13.21;100.00
39793;BME280;26080;42.264;24.536;2023-04-20T06:31:54;98921.53;;;13.27;100.00
39793;BME280;26080;42.264;24.536;2023-04-20T06:34:20;98923.13;;;13.29;100.00
39793;BME280;26080;42.264;24.536;2023-04-20T06:36:45;98913.69;;;13.40;100.00
39793;BME280;26080;42.264;24.536;2023-04-20T06:39:11;98919.41;;;13.46;100.00
39793;BME280;26080;42.264;24.536;2023-04-20T06:41:37;98916.81;;;13.59;100.00
39793;BME280;26080;42.264;24.536;2023-04-20T06:44:03;98912.84;;;13.66;100.00
39793;BME280;26080;42.264;24.536;2023-04-20T06:46:28;98920.97;;;13.76;100.00
39793;BME280;26080;42.264;24.536;2023-04-20T06:48:54;98919.91;;;13.78;100.00
39793;BME280;26080;42.264;24.536;2023-04-20T06:51:19;98919.91;;;13.78;100.00
39793;BME280;26080;42.264;24.536;2023-04-20T06:53:45;98915.28;;;13.82;100.00
39793;BME280;26080;42.264;24.536;2023-04-20T06:56:10;98919.53;;;13.84;100.00
39793;BME280;26080;42.264;24.536;2023-04-20T06:58:36;98917.84;;;13.96;100.00
39793;BME280;26080;42.264;24.536;2023-04-20T07:01:01;98920.06;;;13.89;100.00
39793;BME280;26080;42.264;24.536;2023-04-20T07:03:27;98919.72;;;13.94;100.00
39793;BME280;26080;42.264;24.536;2023-04-20T07:05:52;98915.09;;;13.85;100.00
39793;BME280;26080;42.264;24.536;2023-04-20T07:08:18;98917.09;;;13.94;100.00
39793;BME280;26080;42.264;24.536;2023-04-20T07:10:44;98912.38;;;13.99;100.00
39793;BME280;26080;42.264;24.536;2023-04-20T07:13:09;98913.63;;;13.93;100.00
39793;BME280;26080;42.264;24.536;2023-04-20T07:15:38;98920.59;;;14.07;100.00
39793;BME280;26080;42.264;24.536;2023-04-20T07:18:03;98915.56;;;14.17;100.00
39793;BME280;26080;42.264;24.536;2023-04-20T07:20:29;98916.19;;;14.20;100.00
39793;BME280;26080;42.264;24.536;2023-04-20T07:22:55;98916.81;;;14.37;100.00
39793;BME280;26080;42.264;24.536;2023-04-20T07:25:20;98916.31;;;14.32;100.00
39793;BME280;26080;42.264;24.536;2023-04-20T07:27:46;98920.31;;;14.12;100.00
39793;BME280;26080;42.264;24.536;2023-04-20T07:30:11;98919.56;;;14.22;100.00
39793;BME280;26080;42.264;24.536;2023-04-20T07:32:38;98915.97;;;14.23;100.00
39793;BME280;26080;42.264;24.536;2023-04-20T07:35:04;98908.38;;;14.19;100.00
39793;BME280;26080;42.264;24.536;2023-04-20T07:37:30;98888.34;;;13.91;100.00
39793;BME280;26080;42.264;24.536;2023-04-20T07:39:56;98913.44;;;14.09;100.00
39793;BME280;26080;42.264;24.536;2023-04-20T07:42:22;98907.13;;;14.24;100.00
39793;BME280;26080;42.264;24.536;2023-04-20T07:44:47;98894.09;;;14.48;100.00
39793;BME280;26080;42.264;24.536;2023-04-20T07:47:13;98900.41;;;14.59;100.00
39793;BME280;26080;42.264;24.536;2023-04-20T07:49:39;98897.03;;;14.57;100.00
39793;BME280;26080;42.264;24.536;2023-04-20T07:52:06;98889.22;;;14.68;100.00
39793;BME280;26080;42.264;24.536;2023-04-20T07:54:31;98891.72;;;14.82;100.00
39793;BME280;26080;42.264;24.536;2023-04-20T07:57:00;98896.06;;;14.83;100.00
39793;BME280;26080;42.264;24.536;2023-04-20T07:59:27;98896.22;;;14.93;100.00
39793;BME280;26080;42.264;24.536;2023-04-20T08:01:57;98895.22;;;15.06;100.00
39793;BME280;26080;42.264;24.536;2023-04-20T08:04:24;98895.81;;;15.23;100.00
39793;BME280;26080;42.264;24.536;2023-04-20T08:06:50;98895.06;;;15.21;100.00
39793;BME280;26080;42.264;24.536;2023-04-20T08:09:15;98889.53;;;15.13;100.00
39793;BME280;26080;42.264;24.536;2023-04-20T08:11:40;98886.38;;;15.31;100.00
39793;BME280;26080;42.264;24.536;2023-04-20T08:14:06;98890.88;;;15.42;100.00
39793;BME280;26080;42.264;24.536;2023-04-20T08:16:31;98894.53;;;15.28;100.00
39793;BME280;26080;42.264;24.536;2023-04-20T08:18:57;98894.34;;;15.19;100.00
39793;BME280;26080;42.264;24.536;2023-04-20T08:21:22;98858.41;;;14.81;100.00
39793;BME280;26080;42.264;24.536;2023-04-20T08:23:48;98878.09;;;14.88;100.00
39793;BME280;26080;42.264;24.536;2023-04-20T08:26:14;98875.50;;;14.75;100.00
39793;BME280;26080;42.264;24.536;2023-04-20T08:28:42;98881.69;;;14.87;100.00
39793;BME280;26080;42.264;24.536;2023-04-20T08:31:09;98887.97;;;15.10;100.00
39793;BME280;26080;42.264;24.536;2023-04-20T08:33:34;98867.41;;;15.02;100.00
39793;BME280;26080;42.264;24.536;2023-04-20T08:36:03;98869.31;;;15.00;100.00
39793;BME280;26080;42.264;24.536;2023-04-20T08:39:17;98889.06;;;15.19;100.00
39793;BME280;26080;42.264;24.536;2023-04-20T08:41:43;98884.81;;;15.29;100.00
39793;BME280;26080;42.264;24.536;2023-04-20T08:44:09;98888.63;;;15.49;100.00
39793;BME280;26080;42.264;24.536;2023-04-20T08:46:34;98894.81;;;15.60;100.00
39793;BME280;26080;42.264;24.536;2023-04-20T08:49:00;98879.44;;;15.78;100.00
39793;BME280;26080;42.264;24.536;2023-04-20T08:51:29;98886.34;;;16.14;100.00
39793;BME280;26080;42.264;24.536;2023-04-20T08:54:02;98879.59;;;15.99;92.82
39793;BME280;26080;42.264;24.536;2023-04-20T08:56:32;98876.91;;;15.88;98.15
39793;BME280;26080;42.264;24.536;2023-04-20T08:59:00;98872.09;;;15.82;99.36
39793;BME280;26080;42.264;24.536;2023-04-20T09:01:28;98858.63;;;15.74;98.11
39793;BME280;26080;42.264;24.536;2023-04-20T09:03:53;98870.31;;;15.82;96.73
39793;BME280;26080;42.264;24.536;2023-04-20T09:06:19;98876.69;;;16.02;94.93
39793;BME280;26080;42.264;24.536;2023-04-20T09:08:45;98870.16;;;16.19;96.02
39793;BME280;26080;42.264;24.536;2023-04-20T09:11:24;98873.13;;;16.14;87.21
39793;BME280;26080;42.264;24.536;2023-04-20T09:13:57;98870.50;;;16.25;89.88
39793;BME280;26080;42.264;24.536;2023-04-20T09:16:23;98859.59;;;16.52;85.34
39793;BME280;26080;42.264;24.536;2023-04-20T09:18:52;98856.44;;;16.92;92.56
39793;BME280;26080;42.264;24.536;2023-04-20T09:21:18;98843.66;;;17.08;89.00
39793;BME280;26080;42.264;24.536;2023-04-20T09:23:58;98835.44;;;17.23;86.83
39793;BME280;26080;42.264;24.536;2023-04-20T09:26:23;98846.78;;;17.45;86.29
39793;BME280;26080;42.264;24.536;2023-04-20T09:28:49;98835.94;;;17.48;86.54
39793;BME280;26080;42.264;24.536;2023-04-20T09:31:19;98846.59;;;17.90;84.38
39793;BME280;26080;42.264;24.536;2023-04-20T09:33:55;98836.63;;;18.03;81.05
39793;BME280;26080;42.264;24.536;2023-04-20T09:36:20;98827.28;;;18.30;78.41
39793;BME280;26080;42.264;24.536;2023-04-20T09:38:46;98824.16;;;18.15;78.25
39793;BME280;26080;42.264;24.536;2023-04-20T09:41:11;98815.28;;;18.26;81.42
39793;BME280;26080;42.264;24.536;2023-04-20T09:43:38;98814.38;;;18.46;81.57
39793;BME280;26080;42.264;24.536;2023-04-20T09:46:05;98807.00;;;18.19;77.06
39793;BME280;26080;42.264;24.536;2023-04-20T09:48:33;98813.75;;;18.02;71.77
39793;BME280;26080;42.264;24.536;2023-04-20T09:51:00;98811.19;;;17.91;72.41
39793;BME280;26080;42.264;24.536;2023-04-20T09:53:26;98810.13;;;17.62;75.95
39793;BME280;26080;42.264;24.536;2023-04-20T09:55:52;98813.34;;;17.44;81.53
39793;BME280;26080;42.264;24.536;2023-04-20T09:58:18;98807.66;;;17.49;80.66
39793;BME280;26080;42.264;24.536;2023-04-20T10:00:48;98805.84;;;17.50;78.11
39793;BME280;26080;42.264;24.536;2023-04-20T10:03:20;98789.63;;;17.22;79.35
39793;BME280;26080;42.264;24.536;2023-04-20T10:05:46;98808.66;;;17.16;79.83
39793;BME280;26080;42.264;24.536;2023-04-20T10:08:11;98798.31;;;17.13;79.25
39793;BME280;26080;42.264;24.536;2023-04-20T10:10:48;98801.72;;;17.04;77.25
39793;BME280;26080;42.264;24.536;2023-04-20T10:13:14;98803.69;;;16.91;75.50
39793;BME280;26080;42.264;24.536;2023-04-20T10:15:41;98802.19;;;16.98;75.89
39793;BME280;26080;42.264;24.536;2023-04-20T10:18:22;98802.84;;;17.22;79.60
39793;BME280;26080;42.264;24.536;2023-04-20T10:20:49;98795.84;;;17.32;78.67
39793;BME280;26080;42.264;24.536;2023-04-20T10:23:15;98807.38;;;17.31;75.14
39793;BME280;26080;42.264;24.536;2023-04-20T10:25:54;98802.94;;;17.32;77.31
39793;BME280;26080;42.264;24.536;2023-04-20T10:28:20;98804.69;;;17.10;70.32
39793;BME280;26080;42.264;24.536;2023-04-20T10:30:50;98805.50;;;17.22;73.10
39793;BME280;26080;42.264;24.536;2023-04-20T10:33:15;98799.50;;;17.20;71.59
39793;BME280;26080;42.264;24.536;2023-04-20T10:35:52;98802.72;;;17.24;73.10
39793;BME280;26080;42.264;24.536;2023-04-20T10:38:35;98794.59;;;17.36;69.60
39793;BME280;26080;42.264;24.536;2023-04-20T10:41:10;98761.03;;;17.16;67.71
39793;BME280;26080;42.264;24.536;2023-04-20T10:43:36;98801.75;;;17.57;68.64
39793;BME280;26080;42.264;24.536;2023-04-20T10:46:15;98783.91;;;17.59;66.33
39793;BME280;26080;42.264;24.536;2023-04-20T10:48:54;98794.28;;;17.51;66.43
39793;BME280;26080;42.264;24.536;2023-04-20T10:51:20;98798.63;;;17.52;72.25
39793;BME280;26080;42.264;24.536;2023-04-20T10:53:56;98790.66;;;17.31;71.81
39793;BME280;26080;42.264;24.536;2023-04-20T10:56:22;98796.81;;;17.31;73.02
39793;BME280;26080;42.264;24.536;2023-04-20T10:58:47;98800.69;;;17.27;71.58
39793;BME280;26080;42.264;24.536;2023-04-20T11:01:13;98800.59;;;17.17;72.36
39793;BME280;26080;42.264;24.536;2023-04-20T11:03:39;98793.00;;;17.13;71.92
39793;BME280;26080;42.264;24.536;2023-04-20T11:06:04;98795.78;;;17.43;73.24
39793;BME280;26080;42.264;24.536;2023-04-20T11:11:02;98788.44;;;18.19;70.29
39793;BME280;26080;42.264;24.536;2023-04-20T11:13:28;98770.13;;;18.47;68.00
39793;BME280;26080;42.264;24.536;2023-04-20T11:15:55;98769.88;;;19.09;69.00
39793;BME280;26080;42.264;24.536;2023-04-20T11:18:20;98771.69;;;19.38;68.43
39793;BME280;26080;42.264;24.536;2023-04-20T11:20:50;98767.91;;;19.31;65.38
39793;BME280;26080;42.264;24.536;2023-04-20T11:23:18;98736.03;;;19.31;69.18
39793;BME280;26080;42.264;24.536;2023-04-20T11:25:54;98753.09;;;19.57;67.54
39793;BME280;26080;42.264;24.536;2023-04-20T11:28:20;98761.63;;;19.22;71.88
39793;BME280;26080;42.264;24.536;2023-04-20T11:30:46;98761.47;;;18.85;69.32
39793;BME280;26080;42.264;24.536;2023-04-20T11:33:14;98756.00;;;18.77;68.54
39793;BME280;26080;42.264;24.536;2023-04-20T11:35:41;98753.28;;;18.57;70.17
39793;BME280;26080;42.264;24.536;2023-04-20T11:38:07;98749.78;;;18.57;67.13
39793;BME280;26080;42.264;24.536;2023-04-20T11:40:33;98740.28;;;18.45;68.68
39793;BME280;26080;42.264;24.536;2023-04-20T11:42:58;98745.66;;;18.33;67.61
39793;BME280;26080;42.264;24.536;2023-04-20T11:45:25;98740.94;;;18.27;67.63
39793;BME280;26080;42.264;24.536;2023-04-20T11:47:53;98737.44;;;18.27;65.06
39793;BME280;26080;42.264;24.536;2023-04-20T11:50:19;98733.38;;;18.23;65.61
39793;BME280;26080;42.264;24.536;2023-04-20T11:52:45;98732.22;;;18.16;65.13
39793;BME280;26080;42.264;24.536;2023-04-20T11:55:11;98728.78;;;18.25;60.09
39793;BME280;26080;42.264;24.536;2023-04-20T11:57:36;98727.53;;;18.29;56.57
39793;BME280;26080;42.264;24.536;2023-04-20T12:00:02;98709.41;;;18.24;60.38
39793;BME280;26080;42.264;24.536;2023-04-20T12:02:28;98721.34;;;18.19;62.15
39793;BME280;26080;42.264;24.536;2023-04-20T12:04:54;98742.50;;;18.40;61.78
39793;BME280;26080;42.264;24.536;2023-04-20T12:07:21;98748.16;;;17.95;70.01
39793;BME280;26080;42.264;24.536;2023-04-20T12:09:46;98744.38;;;17.67;74.39
39793;BME280;26080;42.264;24.536;2023-04-20T12:12:11;98768.06;;;16.95;78.58
39793;BME280;26080;42.264;24.536;2023-04-20T12:14:37;98750.88;;;16.46;81.73
39793;BME280;26080;42.264;24.536;2023-04-20T12:17:03;98710.56;;;15.88;78.00
39793;BME280;26080;42.264;24.536;2023-04-20T12:19:29;98741.91;;;16.04;78.74
39793;BME280;26080;42.264;24.536;2023-04-20T12:21:55;98757.59;;;15.83;78.44
39793;BME280;26080;42.264;24.536;2023-04-20T12:24:21;98755.19;;;15.68;83.46
39793;BME280;26080;42.264;24.536;2023-04-20T12:26:46;98761.09;;;15.37;88.96
39793;BME280;26080;42.264;24.536;2023-04-20T12:29:12;98751.84;;;14.96;90.97
39793;BME280;26080;42.264;24.536;2023-04-20T12:31:37;98745.84;;;14.94;86.24
39793;BME280;26080;42.264;24.536;2023-04-20T12:34:03;98716.91;;;14.81;87.96
39793;BME280;26080;42.264;24.536;2023-04-20T12:36:28;98740.34;;;14.97;90.51
39793;BME280;26080;42.264;24.536;2023-04-20T12:38:54;98741.00;;;14.88;92.37
39793;BME280;26080;42.264;24.536;2023-04-20T12:41:21;98732.91;;;14.78;97.27
39793;BME280;26080;42.264;24.536;2023-04-20T12:43:48;98729.97;;;14.83;96.43
39793;BME280;26080;42.264;24.536;2023-04-20T12:46:13;98739.44;;;14.86;99.14